Ningbo Lishe International Airport
ZSNB : now visible

Airfield :











YOU CAN JOIN US ON...

 
LOGIN :

Register | Disclaimer

   EN    FR    IT 

 









Legend :    VFR   Marginal VFR   IFR   Intensive IFR   Very Intensive IFR
Visi :
Ceiling :
>= 8 km
>= 3000ft
5 to 8 km
1000 to 3000 ft
1500m to 5 km
500 to 1000 ft
800 to 1500m
200 to 500 ft
< 800m
< 200 ft
Symbols :   Thunderstorms  Fog  Heavy snow  Heavy precipitations  Wind > 20 kt






- Airport Elevation : 13 ft
- IATA code : NGB


ZSNB - Ningbo Lishe International

CURRENT METAR :
  • 260400Z VRB02MPS 9999 FEW023 FEW030TCU 34/23 Q1004 NOSIG

EXPIRED METARs :
  • 260300Z 17005MPS 140V210 9999 FEW030 32/22 Q1005 NOSIG
  • 260200Z 19004MPS 160V240 CAVOK 31/22 Q1006 NOSIG
  • 260100Z 19005MPS 160V220 9999 FEW026 30/22 Q1006 NOSIG
  • 260000Z 18005MPS 9999 BKN026 27/22 Q1007 NOSIG

TAF AMD TAF ZSNB
Valid from the 26 at 00:00 until the 27 at 00:00 UTC


260421Z 2600/2624 15004G09MPS 6000 BKN023 TX32/2606Z TN22/2621Z
TEMPO 2604/2608 TSRA BKN023 FEW030CB
ZSHA FIR / Asia



MET'MAP, your aeronautical weather chart ! - Copyright ORBIFLY December 2007 - Disclaimer

ORBIFLY MET'MAP TEAM :

Programming & Development : Alexandra Zaïnal
Original concept : Baudouin d'Aumeries
Technical & hardware support : Manuel Goepfert
Assistance : Marc-Olivier Méhu




SOURCES & CREDITS :

   NOAA       Earth
Advisory